Hlavní strana
METAR-TAF:

METAR-TAF

Letiště :

Letiště Teherán-Mehrabád

Teherán, Írán

zeměpisná šířka: 35-41N, zeměpisná délka: 051-21E, výška: 1204 m

Aktuální stav počasí

Zpráva byla vytvořena před 29 minutami, v 17:30 UTC
Východoseverovýchodní vítr 4 kt
Teplota 18°C
Vlhkost vzduchu 34%
Tlak 1022 hPa
Viditelnost 10 km a více
Skoro jasno ve výšce 3500 ft

METAR: OIII 181730Z 07004KT 9999 FEW035 18/02 Q1021 A3017

Čas: 21:29 (17:59 UTC)

Předpověď počasí

Zpráva byla vytvořena před 6 hodinami a 29 minutami, v 11:30 UTC
Předpověď platná od 18 v 12 UTC do 19 v 18 UTC
Jihozápadní vítr 10 kt
Viditelnost: 8000 m
Polojasno ve výšce 3500 ft

TAF: OIII 181130Z 1812/1918 23005MPS 8000 SCT035

Stav a předpovědi počasí z více než 4 000 letišť (zprávy METAR a TAF).

Červené a žluté tečky na mapě představují dostupné meteorologické stanice.

Když kurzor umístíte na tečku, zobrazí se název stanice.

Pak kliknutím zobrazíte stav a předpověď počasí.

Chcete-li změnit mapu, kliknutím na zelené tlačítko se znaménkem +mapu přiblížíte, kliknutím na zelené tlačítko se znaménkem – mapu oddálíte a kliknutím na zelené šipky přejdete na sousední mapy.


METAR-TAF: